TOURFACTS.DK  
Stats and Facts from Tour de France.

Tour de France 2018 starts in 254 days
  Riders   Stages   Teams   Summits   Yearly  


 
Search by year

 2017 - St. 21:  14824 starters.
  5131 different riders.
  634 teams.
  2232 stages.
  454 restdays.
  439589.60 km.
  5653 abandonnees.


Top 3
Christopher Froome86:20:55
Rigoberto Uran86:21:49
Romain Bardet86:23:15
Warren Barguil169 pt.
Primoz Roglic80 pt.
Thomas De Gendt64 pt.
Michael Matthews359 pt.
André Greipel234 pt.
Edvald Boasson Hagen220 pt.
Simon Yates86:27:09
Louis Meintjes86:29:15
Emanuel Buchmann86:54:16
Facts from Tour de France 1938
  |   Stages.  |   Stage winners.  |   Days in yellow  |   Average speed.  |   Route.  |   Teams.  |   All riders.  |   Rookies.  |   Withdrawls.  |  

  |   GC.  |   Polka  |   Green  |   White  |   Summits. (In tour)  |   Summits. (Points)  |   Miscellaneous.  |  

Stage 18 on 27 - 07 - 1938
         Owning:    Gino Bartali    
Pick a stage:  1 2 3 4a 4b 4c 5 6a 6b 7 8 9 10a 10b 10c 11 12 13 14 15 16 17a 17b 18 19 20a 20b 20c 21
  StrasbourgMetz | Dist: 186.00 km.

Average speed for all riders in stage:  32,352 km./hr.
    Place:Name:Team:Time:Km/h:
BELMarcel KintBELBelgium05:43:27  +  00:00:00=32,494 
FRALucien Le GuevelFRABluets05:43:27  +  00:00:00=32,494 
FRAAndré LeducqFRACadets05:43:27  +  00:00:00=32,494 
4 FRAMathias ClemensLUXLuxembourg05:43:27  +  00:00:00=32,494 
5 FRAJean FontenayFRACadets05:43:27  +  00:00:00=32,494 
6 LUXArsène MerschLUXLuxembourg05:43:40  +  00:00:13=32,473 
7 ITAGlauco ServadeiITAItaly05:43:40  +  00:00:13=32,473 
8 SUIPaul EgliCHESwitzerland05:43:40  +  00:00:13=32,473 
9 FRAJean FréchautFRAFrance05:43:40  +  00:00:13=32,473 
10 BELSylvère MaesBELBelgium05:43:40  +  00:00:13=32,473 
11 BELFélicien VervaeckeBELBelgium05:43:40  +  00:00:13=32,473 
12 BELJules LowieBELBelgium05:43:40  +  00:00:13=32,473 
13 BELAlbertin DisseauxBELBelgium05:43:40  +  00:00:13=32,473 
14 BELEmile Masson jr.BELBelgium05:43:40  +  00:00:13=32,473 
15 BELEdward VissersBELBelgium05:43:40  +  00:00:13=32,473 
16 BELFrançois NeuvilleBELBelgium05:43:40  +  00:00:13=32,473 
17 BELRene WalschotBELBelgium05:43:40  +  00:00:13=32,473 
18 ITAGino BartaliITAItaly05:43:40  +  00:00:13=32,473 
19 ITAVasco BergamaschiITAItaly05:43:40  +  00:00:13=32,473 
20 ITAAldo BiniITAItaly05:43:40  +  00:00:13=32,473 
21 ITAEnrico MolloITAItaly05:43:40  +  00:00:13=32,473 
22 ITAMario ViciniITAItaly05:43:40  +  00:00:13=32,473 
23 ITAGiordano CotturITAItaly05:43:40  +  00:00:13=32,473 
24 ITALuigi IntrozziITAItaly05:43:40  +  00:00:13=32,473 
25 ITAGiuseppe MartanoITAItaly05:43:40  +  00:00:13=32,473 
26 FRAAntonin MagneFRAFrance05:43:40  +  00:00:13=32,473 
27 FRAPierre GallienFRAFrance05:43:40  +  00:00:13=32,473 
28 FRAPierre JaminetFRAFrance05:43:40  +  00:00:13=32,473 
29 FRAVictor CossonFRAFrance05:43:40  +  00:00:13=32,473 
30 FRAJean-Marie GoasmatFRAFrance05:43:40  +  00:00:13=32,473 
31 ESPMariano CañardoESPSpain05:43:40  +  00:00:13=32,473 
32 ESPJulián BerrenderoESPSpain05:43:40  +  00:00:13=32,473 
33 ESPRafael RamosESPSpain05:43:40  +  00:00:13=32,473 
34 LUXFrançois NeuensLUXLuxembourg05:43:40  +  00:00:13=32,473 
35 SUIRaymond LouviotFRACadets05:43:40  +  00:00:13=32,473 
36 FRAFabien GalateauFRACadets05:43:40  +  00:00:13=32,473 
37 FRAYvan MarieFRACadets05:43:40  +  00:00:13=32,473 
38 FRARaymond PassatFRACadets05:43:40  +  00:00:13=32,473 
39 FRARobert TanneveauFRACadets05:43:40  +  00:00:13=32,473 
40 FRARobert OubronFRACadets05:43:40  +  00:00:13=32,473 
41 FRAAlbert BourlonFRABluets05:43:40  +  00:00:13=32,473 
42 ITADante GianelloFRABluets05:43:40  +  00:00:13=32,473 
43 SUIBruno CariniFRACadets05:43:40  +  00:00:13=32,473 
44 ITAOreste BernardoniFRABluets05:43:40  +  00:00:13=32,473 
45 FRACamille LeroyFRABluets05:43:40  +  00:00:13=32,473 
46 BELConstant LauwersBELBelgium05:44:45  +  00:01:18=32,371 
47 LUXJean MajerusLUXLuxembourg05:45:09  +  00:01:42=32,334 
48 GEROtto WeckerlingDEUGermany05:47:44  +  00:04:17=32,094 
49 GERJosef ArentsDEUGermany05:47:44  +  00:04:17=32,094 
50 GERReinhold WendelDEUGermany05:47:44  +  00:04:17=32,094 
51 NEDTheo MiddelkampNLDHolland05:54:35  +  00:11:08=31,474 
52 ITANello TroggiITAItaly05:54:35  +  00:11:08=31,474 
53 NEDJanus HellemonsNLDHolland05:54:35  +  00:11:08=31,474 
54 NEDAntoon Van SchendelNLDHolland05:54:35  +  00:11:08=31,474 
55 GERHerbert HauswaldDEUGermany05:57:04  +  00:13:37=31,255 

Withdrawls: 1
 
Rider
Team
Reason
44  FRAGeorges NaisseFRAFranceDid not finish

Todays birthdays.

1886  Jean Meziere
1887  Pierre Herbette
1887  Octave Lapize
1898  Felix Manthey
1920  René Biever
1920  Georges Ramoulux
1928  René Marigil
1940  Jean-Pierre Genet
1944  Giannino Bianco
1945  Eddy Cael
1950  Bert Pronk
1954  Marc Dierickx
1961  Chris Carmichael
1973  Levi Leipheimer